^^
Grace C. Lehan Memorial Weather Station Historical Data
Daily Summary for October 02, 2022 Units:  Both    English   Metric
Daily Weekly Monthly Yearly
  High: Low: Average:
Temperature: 58.9 °F /  14.9 °C 49.9 °F /  9.9 °C 55.4 °F /  13 °C
Dew Point: 50.7 °F /  10.4 °C 35.4 °F /  1.9 °C 43.7 °F /  6.5 °C
Humidity: 80% 50.2% 65%
Wind Speed: 7.8mph /  12.6km/h - 2.1mph /  3.4km/h
Wind Gust: 23mph /  37km/h - -
Wind- - ENE
Pressure: 30.23 in /  1023.6 hPa 29.99 in /  1015.5 hPa -
Precipitation: 0.00 in /  0 mm    
 
 
Tabular Data for October 02, 2022
Time Temperature Dew Point Pressure Wind Wind Speed Wind Gust Humidity Rainfall Rate (Hourly) solar
00:04 58.6 °F /  14.8 °C 46.1 °F /  7.8 °C 29.99in /  1015.5hPa Calm     63% 0.00in /  0mm 0 W/m2
00:09 58.6 °F /  14.8 °C 46.1 °F /  7.8 °C 29.99in /  1015.5hPa Calm   1mph /  1.6km/h 63.2% 0.00in /  0mm 0 W/m2
00:14 58.6 °F /  14.8 °C 46.3 °F /  7.9 °C 29.99in /  1015.5hPa Calm   3mph /  4.8km/h 63.5% 0.00in /  0mm 0 W/m2
00:19 58.5 °F /  14.7 °C 46.4 °F /  8 °C 29.99in /  1015.5hPa NNW 0.3mph /  0.5km/h 9mph /  14.5km/h 63.9% 0.00in /  0mm 0 W/m2
00:24 58.5 °F /  14.7 °C 46.5 °F /  8.1 °C 29.99in /  1015.5hPa East 0.4mph /  0.6km/h 9mph /  14.5km/h 64.2% 0.00in /  0mm 0 W/m2
00:29 58.5 °F /  14.7 °C 46.7 °F /  8.2 °C 29.99in /  1015.5hPa ENE 0.7mph /  1.1km/h 9mph /  14.5km/h 64.8% 0.00in /  0mm 0 W/m2
00:34 58.5 °F /  14.7 °C 46.8 °F /  8.2 °C 29.99in /  1015.5hPa NE 0.9mph /  1.4km/h 9mph /  14.5km/h 65% 0.00in /  0mm 0 W/m2
00:39 58.6 °F /  14.8 °C 46.9 °F /  8.3 °C 30.00in /  1015.8hPa NE 0.6mph /  1km/h 10mph /  16.1km/h 65% 0.00in /  0mm 0 W/m2
00:44 58.6 °F /  14.8 °C 47.1 °F /  8.4 °C 30.00in /  1015.8hPa NNE 0.8mph /  1.3km/h 10mph /  16.1km/h 65.5% 0.00in /  0mm 0 W/m2
00:49 58.6 °F /  14.8 °C 47.2 °F /  8.4 °C 29.99in /  1015.5hPa North 0.4mph /  0.6km/h 10mph /  16.1km/h 65.8% 0.00in /  0mm 0 W/m2
00:54 58.6 °F /  14.8 °C 47.3 °F /  8.5 °C 29.99in /  1015.5hPa NW 0.4mph /  0.6km/h 10mph /  16.1km/h 66% 0.00in /  0mm 0 W/m2
00:59 58.6 °F /  14.8 °C 47.3 °F /  8.5 °C 29.99in /  1015.5hPa NE 1.4mph /  2.3km/h 10mph /  16.1km/h 66% 0.00in /  0mm 0 W/m2
01:04 58.6 °F /  14.8 °C 47.3 °F /  8.5 °C 29.99in /  1015.5hPa NNE 1mph /  1.6km/h 10mph /  16.1km/h 66% 0.00in /  0mm 0 W/m2
01:09 58.6 °F /  14.8 °C 47.3 °F /  8.5 °C 29.99in /  1015.5hPa NW 0.2mph /  0.3km/h 10mph /  16.1km/h 66% 0.00in /  0mm 0 W/m2
01:14 58.7 °F /  14.8 °C 47.7 °F /  8.7 °C 29.99in /  1015.5hPa NE 0.6mph /  1km/h 10mph /  16.1km/h 66.8% 0.00in /  0mm 0 W/m2
01:19 58.7 °F /  14.8 °C 47.8 °F /  8.8 °C 29.99in /  1015.5hPa NW 0.7mph /  1.1km/h 10mph /  16.1km/h 67% 0.00in /  0mm 0 W/m2
01:24 58.7 °F /  14.8 °C 47.7 °F /  8.7 °C 29.99in /  1015.5hPa ENE 1mph /  1.6km/h 10mph /  16.1km/h 66.8% 0.00in /  0mm 0 W/m2
01:29 58.7 °F /  14.8 °C 47.8 °F /  8.8 °C 29.99in /  1015.5hPa NNE 0.7mph /  1.1km/h 10mph /  16.1km/h 67% 0.00in /  0mm 0 W/m2
01:34 58.7 °F /  14.8 °C 48 °F /  8.9 °C 29.99in /  1015.5hPa NE 0.9mph /  1.4km/h 10mph /  16.1km/h 67.5% 0.00in /  0mm 0 W/m2
01:39 58.7 °F /  14.8 °C 48.2 °F /  9 °C 30.00in /  1015.8hPa ENE 0.3mph /  0.5km/h 9mph /  14.5km/h 68% 0.00in /  0mm 0 W/m2
01:44 58.7 °F /  14.8 °C 48.2 °F /  9 °C 30.01in /  1016.1hPa ENE 2mph /  3.2km/h 9mph /  14.5km/h 68.1% 0.00in /  0mm 0 W/m2
01:49 58.8 °F /  14.9 °C 48.3 °F /  9.1 °C 30.01in /  1016.1hPa NE 2.3mph /  3.7km/h 13mph /  20.9km/h 68.2% 0.00in /  0mm 0 W/m2
01:54 58.8 °F /  14.9 °C 48.6 °F /  9.2 °C 30.00in /  1015.8hPa NE 0.8mph /  1.3km/h 13mph /  20.9km/h 68.8% 0.00in /  0mm 0 W/m2
01:59 58.9 °F /  14.9 °C 48.7 °F /  9.3 °C 30.01in /  1016.1hPa ENE 0.7mph /  1.1km/h 13mph /  20.9km/h 69% 0.00in /  0mm 0 W/m2
02:04 58.9 °F /  14.9 °C 49 °F /  9.4 °C 30.01in /  1016.1hPa ENE 1.4mph /  2.3km/h 13mph /  20.9km/h 69.8% 0.00in /  0mm 0 W/m2
02:09 58.9 °F /  14.9 °C 49.2 °F /  9.6 °C 30.01in /  1016.1hPa ENE 1.5mph /  2.4km/h 9mph /  14.5km/h 70% 0.00in /  0mm 0 W/m2
02:14 58.9 °F /  14.9 °C 49.2 °F /  9.6 °C 30.01in /  1016.1hPa NE 1.6mph /  2.6km/h 9mph /  14.5km/h 70% 0.00in /  0mm 0 W/m2
02:19 58.9 °F /  14.9 °C 49.2 °F /  9.6 °C 30.01in /  1016.1hPa NE 2.8mph /  4.5km/h 13mph /  20.9km/h 70% 0.00in /  0mm 0 W/m2
02:24 58.9 °F /  14.9 °C 49.1 °F /  9.5 °C 30.01in /  1016.1hPa ENE 1.1mph /  1.8km/h 13mph /  20.9km/h 70% 0.00in /  0mm 0 W/m2
02:29 58.9 °F /  14.9 °C 49.2 °F /  9.6 °C 30.01in /  1016.1hPa ENE 2.1mph /  3.4km/h 13mph /  20.9km/h 70.3% 0.00in /  0mm 0 W/m2
02:34 58.9 °F /  14.9 °C 49.5 °F /  9.7 °C 30.01in /  1016.1hPa ENE 1.5mph /  2.4km/h 13mph /  20.9km/h 71% 0.00in /  0mm 0 W/m2
02:39 58.8 °F /  14.9 °C 49.4 °F /  9.7 °C 30.01in /  1016.1hPa NE 2.2mph /  3.5km/h 9mph /  14.5km/h 71% 0.00in /  0mm 0 W/m2
02:44 58.8 °F /  14.9 °C 49.4 °F /  9.7 °C 30.01in /  1016.1hPa ENE 1.6mph /  2.6km/h 9mph /  14.5km/h 71% 0.00in /  0mm 0 W/m2
02:49 58.8 °F /  14.9 °C 49.4 °F /  9.7 °C 30.01in /  1016.1hPa NE 1.1mph /  1.8km/h 9mph /  14.5km/h 71% 0.00in /  0mm 0 W/m2
02:54 58.7 °F /  14.8 °C 49.6 °F /  9.8 °C 30.01in /  1016.1hPa ENE 0.5mph /  0.8km/h 9mph /  14.5km/h 71.7% 0.00in /  0mm 0 W/m2
02:59 58.7 °F /  14.8 °C 49.7 °F /  9.8 °C 30.02in /  1016.5hPa ENE 0.9mph /  1.4km/h 9mph /  14.5km/h 72% 0.00in /  0mm 0 W/m2
03:04 58.7 °F /  14.8 °C 49.8 °F /  9.9 °C 30.02in /  1016.5hPa NE 0.6mph /  1km/h 9mph /  14.5km/h 72.2% 0.00in /  0mm 0 W/m2
03:09 58.6 °F /  14.8 °C 50 °F /  10 °C 30.02in /  1016.5hPa NE 0.8mph /  1.3km/h 7mph /  11.3km/h 73% 0.00in /  0mm 0 W/m2
03:14 58.6 °F /  14.8 °C 50 °F /  10 °C 30.02in /  1016.5hPa NE 0.6mph /  1km/h 7mph /  11.3km/h 73% 0.00in /  0mm 0 W/m2
03:19 58.6 °F /  14.8 °C 50 °F /  10 °C 30.02in /  1016.5hPa NE 0.4mph /  0.6km/h 7mph /  11.3km/h 73% 0.00in /  0mm 0 W/m2
03:24 58.6 °F /  14.8 °C 50.2 °F /  10.1 °C 30.02in /  1016.5hPa North 0.2mph /  0.3km/h 7mph /  11.3km/h 73.7% 0.00in /  0mm 0 W/m2
03:29 58.5 °F /  14.7 °C 50.3 °F /  10.2 °C 30.02in /  1016.5hPa NE 0.4mph /  0.6km/h 7mph /  11.3km/h 74% 0.00in /  0mm 0 W/m2
03:34 58.4 °F /  14.7 °C 50.5 °F /  10.3 °C 30.01in /  1016.1hPa ENE 0.4mph /  0.6km/h 7mph /  11.3km/h 74.9% 0.00in /  0mm 0 W/m2
03:39 58.4 °F /  14.7 °C 50.5 °F /  10.3 °C 30.01in /  1016.1hPa Calm   6mph /  9.7km/h 75% 0.00in /  0mm 0 W/m2
03:44 58.3 °F /  14.6 °C 50.7 °F /  10.4 °C 30.01in /  1016.1hPa SSE 0.4mph /  0.6km/h 6mph /  9.7km/h 75.7% 0.00in /  0mm 0 W/m2
03:49 58.2 °F /  14.6 °C 50.7 °F /  10.4 °C 30.01in /  1016.1hPa NNW 0.1mph /  0.2km/h 6mph /  9.7km/h 76% 0.00in /  0mm 0 W/m2
03:54 58.2 °F /  14.6 °C 50.6 °F /  10.3 °C 30.01in /  1016.1hPa ENE 0.8mph /  1.3km/h 6mph /  9.7km/h 76% 0.00in /  0mm 0 W/m2
03:59 58.1 °F /  14.5 °C 50.6 °F /  10.3 °C 30.01in /  1016.1hPa NE 0.3mph /  0.5km/h 6mph /  9.7km/h 76% 0.00in /  0mm 0 W/m2
04:00 58.1 °F /  14.5 °C 50.6 °F /  10.3 °C 30.01in /  1016.1hPa Calm   6mph /  9.7km/h 76% 0.00in /  0mm 0 W/m2
04:09 58 °F /  14.4 °C 50.5 °F /  10.3 °C 30.01in /  1016.1hPa ENE 0.4mph /  0.6km/h 7mph /  11.3km/h 76.2% 0.00in /  0mm 0 W/m2
04:14 57.9 °F /  14.4 °C 50.5 °F /  10.3 °C 30.01in /  1016.1hPa NE 1.4mph /  2.3km/h 10mph /  16.1km/h 76.2% 0.00in /  0mm 0 W/m2
04:19 57.8 °F /  14.3 °C 50.5 °F /  10.3 °C 30.01in /  1016.1hPa North 1mph /  1.6km/h 15mph /  24.1km/h 76.4% 0.00in /  0mm 0 W/m2
04:24 57.8 °F /  14.3 °C 50.4 °F /  10.2 °C 30.00in /  1015.8hPa ENE 1mph /  1.6km/h 15mph /  24.1km/h 76.3% 0.00in /  0mm 0 W/m2
04:29 57.7 °F /  14.3 °C 50.3 °F /  10.2 °C 30.01in /  1016.1hPa NNE 1.5mph /  2.4km/h 15mph /  24.1km/h 76.3% 0.00in /  0mm 0 W/m2
04:34 57.7 °F /  14.3 °C 50.3 °F /  10.2 °C 30.01in /  1016.1hPa NE 0.6mph /  1km/h 15mph /  24.1km/h 76.2% 0.00in /  0mm 0 W/m2
04:39 57.7 °F /  14.3 °C 50.4 °F /  10.2 °C 30.01in /  1016.1hPa North 1.1mph /  1.8km/h 7mph /  11.3km/h 76.4% 0.00in /  0mm 0 W/m2
04:44 57.7 °F /  14.3 °C 50.3 °F /  10.2 °C 30.01in /  1016.1hPa ENE 0.7mph /  1.1km/h 7mph /  11.3km/h 76.2% 0.00in /  0mm 0 W/m2
04:49 57.7 °F /  14.3 °C 50.2 °F /  10.1 °C 30.01in /  1016.1hPa NE 1.3mph /  2.1km/h 7mph /  11.3km/h 76% 0.00in /  0mm 0 W/m2
04:54 57.7 °F /  14.3 °C 50.3 °F /  10.2 °C 30.01in /  1016.1hPa NNE 1.4mph /  2.3km/h 12mph /  19.3km/h 76.3% 0.00in /  0mm 0 W/m2
04:59 57.7 °F /  14.3 °C 50.2 °F /  10.1 °C 30.01in /  1016.1hPa NE 0.7mph /  1.1km/h 12mph /  19.3km/h 76% 0.00in /  0mm 0 W/m2
05:04 57.7 °F /  14.3 °C 50.5 °F /  10.3 °C 30.01in /  1016.1hPa North 1.1mph /  1.8km/h 12mph /  19.3km/h 76.8% 0.00in /  0mm 0 W/m2
05:09 57.6 °F /  14.2 °C 50.5 °F /  10.3 °C 30.01in /  1016.1hPa NNE 0.7mph /  1.1km/h 11mph /  17.7km/h 77% 0.00in /  0mm 0 W/m2
05:14 57.6 °F /  14.2 °C 50.4 °F /  10.2 °C 30.01in /  1016.1hPa NE 0.4mph /  0.6km/h 11mph /  17.7km/h 77% 0.00in /  0mm 0 W/m2
05:19 57.5 °F /  14.2 °C 50.4 °F /  10.2 °C 30.01in /  1016.1hPa NE 0.9mph /  1.4km/h 11mph /  17.7km/h 77% 0.00in /  0mm 0 W/m2
05:24 57.5 °F /  14.2 °C 50.4 °F /  10.2 °C 30.02in /  1016.5hPa NNE 1.1mph /  1.8km/h 11mph /  17.7km/h 77% 0.00in /  0mm 0 W/m2
05:29 57.5 °F /  14.2 °C 50.4 °F /  10.2 °C 30.02in /  1016.5hPa NNW 1mph /  1.6km/h 13mph /  20.9km/h 77% 0.00in /  0mm 0 W/m2
05:34 57.4 °F /  14.1 °C 50.3 °F /  10.2 °C 30.02in /  1016.5hPa NNE 0.5mph /  0.8km/h 13mph /  20.9km/h 77% 0.00in /  0mm 0 W/m2
05:39 57.4 °F /  14.1 °C 50.3 °F /  10.2 °C 30.02in /  1016.5hPa NNE 1mph /  1.6km/h 7mph /  11.3km/h 77% 0.00in /  0mm 0 W/m2
05:44 57.3 °F /  14.1 °C 50.2 °F /  10.1 °C 30.02in /  1016.5hPa NNE 0.9mph /  1.4km/h 7mph /  11.3km/h 77% 0.00in /  0mm 0 W/m2
05:49 57.3 °F /  14.1 °C 50.2 °F /  10.1 °C 30.02in /  1016.5hPa North 0.5mph /  0.8km/h 7mph /  11.3km/h 77.2% 0.00in /  0mm 0 W/m2
05:54 57.2 °F /  14 °C 50 °F /  10 °C 30.02in /  1016.5hPa ENE 1.6mph /  2.6km/h 11mph /  17.7km/h 77% 0.00in /  0mm 0 W/m2
05:59 57.1 °F /  13.9 °C 50.2 °F /  10.1 °C 30.02in /  1016.5hPa NNE 0.8mph /  1.3km/h 11mph /  17.7km/h 77.5% 0.00in /  0mm 0 W/m2
06:04 57.1 °F /  13.9 °C 50.3 °F /  10.2 °C 30.03in /  1016.8hPa NE 1.3mph /  2.1km/h 11mph /  17.7km/h 78% 0.00in /  0mm 0 W/m2
06:09 57 °F /  13.9 °C 50.2 °F /  10.1 °C 30.03in /  1016.8hPa ENE 1.1mph /  1.8km/h 10mph /  16.1km/h 78% 0.00in /  0mm 0 W/m2
06:14 56.9 °F /  13.8 °C 50.1 °F /  10.1 °C 30.04in /  1017.2hPa ENE 1.1mph /  1.8km/h 10mph /  16.1km/h 78% 0.00in /  0mm 0 W/m2
06:19 56.8 °F /  13.8 °C 50.1 °F /  10.1 °C 30.04in /  1017.2hPa NNE 0.5mph /  0.8km/h 10mph /  16.1km/h 78.1% 0.00in /  0mm 0 W/m2
06:24 56.7 °F /  13.7 °C 50.2 °F /  10.1 °C 30.04in /  1017.2hPa North 0.3mph /  0.5km/h 10mph /  16.1km/h 78.6% 0.00in /  0mm 0 W/m2
06:29 56.7 °F /  13.7 °C 50.3 °F /  10.2 °C 30.04in /  1017.2hPa NNE 0.6mph /  1km/h 10mph /  16.1km/h 79% 0.00in /  0mm 0 W/m2
06:34 56.6 °F /  13.7 °C 50.2 °F /  10.1 °C 30.05in /  1017.5hPa NE 0.8mph /  1.3km/h 10mph /  16.1km/h 79% 0.00in /  0mm 0 W/m2
06:39 56.5 °F /  13.6 °C 50.1 °F /  10.1 °C 30.05in /  1017.5hPa ENE 1.6mph /  2.6km/h 10mph /  16.1km/h 79% 0.00in /  0mm 0 W/m2
06:44 56.4 °F /  13.6 °C 50.2 °F /  10.1 °C 30.05in /  1017.5hPa ENE 1.2mph /  1.9km/h 10mph /  16.1km/h 79.7% 0.00in /  0mm 0 W/m2
06:49 56.4 °F /  13.6 °C 50.3 °F /  10.2 °C 30.05in /  1017.5hPa ENE 0.4mph /  0.6km/h 10mph /  16.1km/h 80% 0.00in /  0mm 0 W/m2
06:54 56.3 °F /  13.5 °C 50.2 °F /  10.1 °C 30.05in /  1017.5hPa NE 1mph /  1.6km/h 10mph /  16.1km/h 80% 0.00in /  0mm 0 W/m2
06:59 56.3 °F /  13.5 °C 50.2 °F /  10.1 °C 30.05in /  1017.5hPa NE 0.8mph /  1.3km/h 10mph /  16.1km/h 80% 0.00in /  0mm 0 W/m2
07:04 56.3 °F /  13.5 °C 50.2 °F /  10.1 °C 30.06in /  1017.8hPa East 1.5mph /  2.4km/h 10mph /  16.1km/h 80% 0.00in /  0mm 0 W/m2
07:09 56.3 °F /  13.5 °C 50.2 °F /  10.1 °C 30.06in /  1017.8hPa ENE 1.3mph /  2.1km/h 7mph /  11.3km/h 80% 0.00in /  0mm 5 W/m2
07:14 56.3 °F /  13.5 °C 50.2 °F /  10.1 °C 30.05in /  1017.5hPa ENE 2mph /  3.2km/h 10mph /  16.1km/h 80% 0.00in /  0mm 7 W/m2
07:19 56.4 °F /  13.6 °C 50.3 °F /  10.2 °C 30.05in /  1017.5hPa ENE 0.8mph /  1.3km/h 10mph /  16.1km/h 80% 0.00in /  0mm 12 W/m2
07:24 56.4 °F /  13.6 °C 50.4 °F /  10.2 °C 30.05in /  1017.5hPa ENE 1.5mph /  2.4km/h 10mph /  16.1km/h 80% 0.00in /  0mm 11 W/m2
07:29 56.5 °F /  13.6 °C 50.4 °F /  10.2 °C 30.05in /  1017.5hPa ENE 1.1mph /  1.8km/h 10mph /  16.1km/h 80% 0.00in /  0mm 9 W/m2
07:34 56.5 °F /  13.6 °C 50.4 °F /  10.2 °C 30.06in /  1017.8hPa ENE 1.7mph /  2.7km/h 10mph /  16.1km/h 79.9% 0.00in /  0mm 7 W/m2
07:39 56.5 °F /  13.6 °C 50.1 °F /  10.1 °C 30.06in /  1017.8hPa ENE 1.7mph /  2.7km/h 9mph /  14.5km/h 79.2% 0.00in /  0mm 9 W/m2
07:44 56.5 °F /  13.6 °C 50.1 °F /  10.1 °C 30.06in /  1017.8hPa NE 2.9mph /  4.7km/h 12mph /  19.3km/h 79% 0.00in /  0mm 7 W/m2
07:49 56.5 °F /  13.6 °C 50.1 °F /  10.1 °C 30.07in /  1018.2hPa NE 4.3mph /  6.9km/h 12mph /  19.3km/h 79% 0.00in /  0mm 7 W/m2
07:54 56.5 °F /  13.6 °C 50.1 °F /  10.1 °C 30.07in /  1018.2hPa ENE 0.8mph /  1.3km/h 12mph /  19.3km/h 79% 0.00in /  0mm 16 W/m2
07:59 56.5 °F /  13.6 °C 50 °F /  10 °C 30.07in /  1018.2hPa ENE 2.3mph /  3.7km/h 12mph /  19.3km/h 79% 0.00in /  0mm 16 W/m2
08:09 56.4 °F /  13.6 °C 49.9 °F /  9.9 °C 30.07in /  1018.2hPa ENE 2.4mph /  3.9km/h 12mph /  19.3km/h 78.8% 0.00in /  0mm 30 W/m2
08:14 56.4 °F /  13.6 °C 49.7 °F /  9.8 °C 30.08in /  1018.5hPa ENE 2.8mph /  4.5km/h 12mph /  19.3km/h 78.1% 0.00in /  0mm 44 W/m2
08:19 56.4 °F /  13.6 °C 49.6 °F /  9.8 °C 30.08in /  1018.5hPa East 1.5mph /  2.4km/h 12mph /  19.3km/h 78% 0.00in /  0mm 42 W/m2
08:24 56.4 °F /  13.6 °C 49.6 °F /  9.8 °C 30.08in /  1018.5hPa NE 2.2mph /  3.5km/h 12mph /  19.3km/h 78% 0.00in /  0mm 40 W/m2
08:29 56.4 °F /  13.6 °C 49.6 °F /  9.8 °C 30.09in /  1018.8hPa ENE 1.3mph /  2.1km/h 12mph /  19.3km/h 78% 0.00in /  0mm 44 W/m2
08:34 56.4 °F /  13.6 °C 49.6 °F /  9.8 °C 30.09in /  1018.8hPa ENE 1.9mph /  3.1km/h 12mph /  19.3km/h 78% 0.00in /  0mm 63 W/m2
08:39 56.4 °F /  13.6 °C 49.6 °F /  9.8 °C 30.09in /  1018.8hPa NE 3.1mph /  5km/h 11mph /  17.7km/h 78% 0.00in /  0mm 72 W/m2
08:44 56.4 °F /  13.6 °C 49.6 °F /  9.8 °C 30.09in /  1018.8hPa NE 3.9mph /  6.3km/h 13mph /  20.9km/h 77.9% 0.00in /  0mm 65 W/m2
08:49 56.4 °F /  13.6 °C 49.3 °F /  9.6 °C 30.09in /  1018.8hPa NE 1.9mph /  3.1km/h 13mph /  20.9km/h 77.1% 0.00in /  0mm 70 W/m2
08:54 56.4 °F /  13.6 °C 49.3 °F /  9.6 °C 30.08in /  1018.5hPa ENE 2.1mph /  3.4km/h 13mph /  20.9km/h 77.1% 0.00in /  0mm 62 W/m2
08:59 56.4 °F /  13.6 °C 49.4 °F /  9.7 °C 30.09in /  1018.8hPa NE 3.4mph /  5.5km/h 16mph /  25.7km/h 77.2% 0.00in /  0mm 49 W/m2
09:04 56.3 °F /  13.5 °C 49.2 °F /  9.6 °C 30.09in /  1018.8hPa NE 0.8mph /  1.3km/h 16mph /  25.7km/h 77% 0.00in /  0mm 54 W/m2
09:09 56.3 °F /  13.5 °C 49.2 °F /  9.6 °C 30.09in /  1018.8hPa ENE 2.7mph /  4.3km/h 11mph /  17.7km/h 77% 0.00in /  0mm 69 W/m2
09:14 56.2 °F /  13.4 °C 49.2 °F /  9.6 °C 30.10in /  1019.2hPa ENE 3.9mph /  6.3km/h 12mph /  19.3km/h 77.2% 0.00in /  0mm 70 W/m2
09:19 56.2 °F /  13.4 °C 49.1 °F /  9.5 °C 30.10in /  1019.2hPa NE 2.6mph /  4.2km/h 12mph /  19.3km/h 77% 0.00in /  0mm 84 W/m2
09:24 56.2 °F /  13.4 °C 49.1 °F /  9.5 °C 30.10in /  1019.2hPa NE 1.8mph /  2.9km/h 12mph /  19.3km/h 77% 0.00in /  0mm 104 W/m2
09:29 56.2 °F /  13.4 °C 49.1 °F /  9.5 °C 30.10in /  1019.2hPa NE 1.4mph /  2.3km/h 12mph /  19.3km/h 77.1% 0.00in /  0mm 107 W/m2
09:34 56.2 °F /  13.4 °C 49.3 °F /  9.6 °C 30.11in /  1019.5hPa NE 1.8mph /  2.9km/h 16mph /  25.7km/h 77.3% 0.00in /  0mm 104 W/m2
09:39 56.3 °F /  13.5 °C 49.2 °F /  9.6 °C 30.11in /  1019.5hPa ENE 3mph /  4.8km/h 16mph /  25.7km/h 77% 0.00in /  0mm 91 W/m2
09:44 56.3 °F /  13.5 °C 49.2 °F /  9.6 °C 30.11in /  1019.5hPa ENE 1.1mph /  1.8km/h 16mph /  25.7km/h 77% 0.00in /  0mm 114 W/m2
09:49 56.3 °F /  13.5 °C 48.9 °F /  9.4 °C 30.11in /  1019.5hPa NE 3mph /  4.8km/h 16mph /  25.7km/h 76.3% 0.00in /  0mm 120 W/m2
09:54 56.3 °F /  13.5 °C 49 °F /  9.4 °C 30.11in /  1019.5hPa NE 2.6mph /  4.2km/h 16mph /  25.7km/h 76.4% 0.00in /  0mm 114 W/m2
09:59 56.3 °F /  13.5 °C 48.8 °F /  9.3 °C 30.11in /  1019.5hPa NE 3.6mph /  5.8km/h 16mph /  25.7km/h 76% 0.00in /  0mm 107 W/m2
10:04 56.2 °F /  13.4 °C 48.9 °F /  9.4 °C 30.11in /  1019.5hPa ENE 1.3mph /  2.1km/h 16mph /  25.7km/h 76.3% 0.00in /  0mm 114 W/m2
10:09 56.2 °F /  13.4 °C 48.8 °F /  9.3 °C 30.11in /  1019.5hPa ENE 1.5mph /  2.4km/h 13mph /  20.9km/h 76.2% 0.00in /  0mm 116 W/m2
10:14 56 °F /  13.3 °C 48.8 °F /  9.3 °C 30.12in /  1019.9hPa ENE 3.3mph /  5.3km/h 13mph /  20.9km/h 76.7% 0.00in /  0mm 155 W/m2
10:19 55.9 °F /  13.3 °C 48.7 °F /  9.3 °C 30.12in /  1019.9hPa ENE 2.3mph /  3.7km/h 13mph /  20.9km/h 76.8% 0.00in /  0mm 192 W/m2
10:24 55.9 °F /  13.3 °C 48.8 °F /  9.3 °C 30.12in /  1019.9hPa North 2.3mph /  3.7km/h 13mph /  20.9km/h 76.9% 0.00in /  0mm 181 W/m2
10:29 56 °F /  13.3 °C 48.6 °F /  9.2 °C 30.12in /  1019.9hPa ENE 2.4mph /  3.9km/h 13mph /  20.9km/h 76% 0.00in /  0mm 158 W/m2
10:34 56.1 °F /  13.4 °C 48.6 °F /  9.2 °C 30.12in /  1019.9hPa NE 2.4mph /  3.9km/h 13mph /  20.9km/h 76% 0.00in /  0mm 183 W/m2
10:39 56.2 °F /  13.4 °C 48.6 °F /  9.2 °C 30.12in /  1019.9hPa ENE 2.1mph /  3.4km/h 12mph /  19.3km/h 75.6% 0.00in /  0mm 156 W/m2
10:44 56.2 °F /  13.4 °C 48.5 °F /  9.2 °C 30.13in /  1020.2hPa NE 1.4mph /  2.3km/h 12mph /  19.3km/h 75.3% 0.00in /  0mm 123 W/m2
10:49 56.1 °F /  13.4 °C 48.3 °F /  9.1 °C 30.13in /  1020.2hPa ENE 5.3mph /  8.5km/h 17mph /  27.4km/h 74.8% 0.00in /  0mm 151 W/m2
10:54 55.9 °F /  13.3 °C 47.7 °F /  8.7 °C 30.13in /  1020.2hPa ENE 4.8mph /  7.7km/h 18mph /  29km/h 73.7% 0.00in /  0mm 141 W/m2
10:59 55.8 °F /  13.2 °C 47.5 °F /  8.6 °C 30.12in /  1019.9hPa NE 4.9mph /  7.9km/h 18mph /  29km/h 73.8% 0.00in /  0mm 148 W/m2
11:04 55.7 °F /  13.2 °C 47.3 °F /  8.5 °C 30.12in /  1019.9hPa ENE 6.6mph /  10.6km/h 18mph /  29km/h 73.4% 0.00in /  0mm 148 W/m2
11:09 55.6 °F /  13.1 °C 47.1 °F /  8.4 °C 30.12in /  1019.9hPa NE 4.7mph /  7.6km/h 18mph /  29km/h 73% 0.00in /  0mm 151 W/m2
11:14 55.6 °F /  13.1 °C 46.8 °F /  8.2 °C 30.12in /  1019.9hPa ENE 4.3mph /  6.9km/h 18mph /  29km/h 72.3% 0.00in /  0mm 195 W/m2
11:19 55.7 °F /  13.2 °C 47 °F /  8.3 °C 30.12in /  1019.9hPa ENE 5.3mph /  8.5km/h 18mph /  29km/h 72.6% 0.00in /  0mm 241 W/m2
11:24 55.8 °F /  13.2 °C 46.7 °F /  8.2 °C 30.12in /  1019.9hPa ENE 3.4mph /  5.5km/h 18mph /  29km/h 71.4% 0.00in /  0mm 241 W/m2
11:29 56 °F /  13.3 °C 46.9 °F /  8.3 °C 30.13in /  1020.2hPa ENE 3.6mph /  5.8km/h 18mph /  29km/h 71.3% 0.00in /  0mm 271 W/m2
11:34 56.2 °F /  13.4 °C 46.6 °F /  8.1 °C 30.13in /  1020.2hPa ENE 4.4mph /  7.1km/h 18mph /  29km/h 70% 0.00in /  0mm 297 W/m2
11:39 56.4 °F /  13.6 °C 45.9 °F /  7.7 °C 30.13in /  1020.2hPa ENE 5.8mph /  9.3km/h 20mph /  32.2km/h 67.9% 0.00in /  0mm 278 W/m2
11:44 56.4 °F /  13.6 °C 45.9 °F /  7.7 °C 30.13in /  1020.2hPa NE 4.2mph /  6.8km/h 20mph /  32.2km/h 67.9% 0.00in /  0mm 237 W/m2
11:49 56.4 °F /  13.6 °C 45.8 °F /  7.7 °C 30.12in /  1019.9hPa ENE 4.8mph /  7.7km/h 20mph /  32.2km/h 67.5% 0.00in /  0mm 206 W/m2
11:54 56.4 °F /  13.6 °C 45.3 °F /  7.4 °C 30.13in /  1020.2hPa ENE 7.8mph /  12.6km/h 20mph /  32.2km/h 66.1% 0.00in /  0mm 221 W/m2
11:59 56.3 °F /  13.5 °C 44.9 °F /  7.2 °C 30.13in /  1020.2hPa ENE 3.7mph /  6km/h 20mph /  32.2km/h 65.5% 0.00in /  0mm 220 W/m2
12:00 56.3 °F /  13.5 °C 45.1 °F /  7.3 °C 30.12in /  1019.9hPa ENE 2mph /  3.2km/h 20mph /  32.2km/h 66% 0.00in /  0mm 197 W/m2
12:09 56.2 °F /  13.4 °C 44.5 °F /  6.9 °C 30.14in /  1020.5hPa ENE 2.1mph /  3.4km/h 21mph /  33.8km/h 64.8% 0.00in /  0mm 169 W/m2
12:14 56.1 °F /  13.4 °C 44.2 °F /  6.8 °C 30.14in /  1020.5hPa ENE 2.8mph /  4.5km/h 21mph /  33.8km/h 64.2% 0.00in /  0mm 197 W/m2
12:19 56.1 °F /  13.4 °C 44 °F /  6.7 °C 30.14in /  1020.5hPa ENE 4.2mph /  6.8km/h 21mph /  33.8km/h 63.7% 0.00in /  0mm 214 W/m2
12:24 56 °F /  13.3 °C 43.6 °F /  6.4 °C 30.15in /  1020.9hPa East 2.2mph /  3.5km/h 21mph /  33.8km/h 63% 0.00in /  0mm 220 W/m2
12:29 56.1 °F /  13.4 °C 44 °F /  6.7 °C 30.15in /  1020.9hPa ENE 1.4mph /  2.3km/h 21mph /  33.8km/h 63.6% 0.00in /  0mm 221 W/m2
12:34 56.3 °F /  13.5 °C 43.7 °F /  6.5 °C 30.15in /  1020.9hPa NE 2.4mph /  3.9km/h 21mph /  33.8km/h 62.5% 0.00in /  0mm 264 W/m2
12:39 56.4 °F /  13.6 °C 42.8 °F /  6 °C 30.15in /  1020.9hPa ENE 6.2mph /  10km/h 18mph /  29km/h 60.2% 0.00in /  0mm 316 W/m2
12:44 56.4 °F /  13.6 °C 42 °F /  5.6 °C 30.15in /  1020.9hPa ENE 6.2mph /  10km/h 23mph /  37km/h 58.3% 0.00in /  0mm 320 W/m2
12:49 56.5 °F /  13.6 °C 41.5 °F /  5.3 °C 30.15in /  1020.9hPa ENE 5.3mph /  8.5km/h 23mph /  37km/h 57.2% 0.00in /  0mm 301 W/m2
12:54 56.6 °F /  13.7 °C 41.2 °F /  5.1 °C 30.15in /  1020.9hPa ENE 5.5mph /  8.9km/h 23mph /  37km/h 56.2% 0.00in /  0mm 332 W/m2
12:59 56.8 °F /  13.8 °C 41.3 °F /  5.2 °C 30.15in /  1020.9hPa ENE 3.9mph /  6.3km/h 23mph /  37km/h 56.2% 0.00in /  0mm 325 W/m2
13:04 56.8 °F /  13.8 °C 40.9 °F /  4.9 °C 30.15in /  1020.9hPa ENE 6.8mph /  10.9km/h 23mph /  37km/h 55.2% 0.00in /  0mm 299 W/m2
13:09 56.8 °F /  13.8 °C 40.9 °F /  4.9 °C 30.15in /  1020.9hPa ENE 5.8mph /  9.3km/h 20mph /  32.2km/h 55.2% 0.00in /  0mm 290 W/m2
13:14 56.6 °F /  13.7 °C 40.6 °F /  4.8 °C 30.14in /  1020.5hPa ENE 6mph /  9.7km/h 20mph /  32.2km/h 54.8% 0.00in /  0mm 271 W/m2
13:19 56.7 °F /  13.7 °C 41.4 °F /  5.2 °C 30.14in /  1020.5hPa ENE 3mph /  4.8km/h 20mph /  32.2km/h 56.6% 0.00in /  0mm 274 W/m2
13:24 56.7 °F /  13.7 °C 41.2 °F /  5.1 °C 30.14in /  1020.5hPa ENE 3.7mph /  6km/h 20mph /  32.2km/h 55.9% 0.00in /  0mm 318 W/m2
13:29 56.9 °F /  13.8 °C 41.3 °F /  5.2 °C 30.14in /  1020.5hPa NE 5.1mph /  8.2km/h 20mph /  32.2km/h 55.8% 0.00in /  0mm 330 W/m2
13:34 57 °F /  13.9 °C 41.2 °F /  5.1 °C 30.14in /  1020.5hPa ENE 4mph /  6.4km/h 20mph /  32.2km/h 55.5% 0.00in /  0mm 315 W/m2
13:39 57 °F /  13.9 °C 41.2 °F /  5.1 °C 30.14in /  1020.5hPa NE 2mph /  3.2km/h 16mph /  25.7km/h 55.5% 0.00in /  0mm 288 W/m2
13:44 57.1 °F /  13.9 °C 41.5 °F /  5.3 °C 30.14in /  1020.5hPa NE 2.8mph /  4.5km/h 16mph /  25.7km/h 55.9% 0.00in /  0mm 295 W/m2
13:49 57.1 °F /  13.9 °C 41 °F /  5 °C 30.14in /  1020.5hPa NE 5.1mph /  8.2km/h 17mph /  27.4km/h 54.8% 0.00in /  0mm 290 W/m2
13:54 56.9 °F /  13.8 °C 40.5 °F /  4.7 °C 30.14in /  1020.5hPa ENE 3.1mph /  5km/h 17mph /  27.4km/h 54.1% 0.00in /  0mm 251 W/m2
13:59 56.8 °F /  13.8 °C 41.2 °F /  5.1 °C 30.14in /  1020.5hPa ENE 3.5mph /  5.6km/h 17mph /  27.4km/h 55.8% 0.00in /  0mm 311 W/m2
14:04 56.8 °F /  13.8 °C 40.9 °F /  4.9 °C 30.14in /  1020.5hPa ENE 6.2mph /  10km/h 17mph /  27.4km/h 55.1% 0.00in /  0mm 336 W/m2
14:09 56.8 °F /  13.8 °C 40.3 °F /  4.6 °C 30.14in /  1020.5hPa NE 4.3mph /  6.9km/h 17mph /  27.4km/h 54% 0.00in /  0mm 323 W/m2
14:14 56.7 °F /  13.7 °C 40.2 °F /  4.6 °C 30.14in /  1020.5hPa ENE 4.7mph /  7.6km/h 18mph /  29km/h 54% 0.00in /  0mm 285 W/m2
14:19 56.5 °F /  13.6 °C 40.4 °F /  4.7 °C 30.15in /  1020.9hPa NE 4mph /  6.4km/h 18mph /  29km/h 54.7% 0.00in /  0mm 237 W/m2
14:24 56.4 °F /  13.6 °C 40.2 °F /  4.6 °C 30.15in /  1020.9hPa ENE 3.2mph /  5.1km/h 18mph /  29km/h 54.5% 0.00in /  0mm 218 W/m2
14:29 56.2 °F /  13.4 °C 40 °F /  4.4 °C 30.15in /  1020.9hPa ENE 4mph /  6.4km/h 18mph /  29km/h 54.3% 0.00in /  0mm 185 W/m2
14:34 55.9 °F /  13.3 °C 39.9 °F /  4.4 °C 30.14in /  1020.5hPa NE 4.7mph /  7.6km/h 19mph /  30.6km/h 54.8% 0.00in /  0mm 165 W/m2
14:39 55.6 °F /  13.1 °C 38.8 °F /  3.8 °C 30.15in /  1020.9hPa ENE 6.8mph /  10.9km/h 19mph /  30.6km/h 53% 0.00in /  0mm 176 W/m2
14:44 55.4 °F /  13 °C 39 °F /  3.9 °C 30.15in /  1020.9hPa ENE 4.3mph /  6.9km/h 19mph /  30.6km/h 53.9% 0.00in /  0mm 188 W/m2
14:49 55.3 °F /  12.9 °C 38.9 °F /  3.8 °C 30.15in /  1020.9hPa ENE 4.3mph /  6.9km/h 19mph /  30.6km/h 53.9% 0.00in /  0mm 204 W/m2
14:54 55.3 °F /  12.9 °C 39.2 °F /  4 °C 30.15in /  1020.9hPa ENE 2.8mph /  4.5km/h 19mph /  30.6km/h 54.5% 0.00in /  0mm 197 W/m2
14:59 55.3 °F /  12.9 °C 39 °F /  3.9 °C 30.15in /  1020.9hPa NE 4.8mph /  7.7km/h 19mph /  30.6km/h 54.2% 0.00in /  0mm 167 W/m2
15:04 55.3 °F /  12.9 °C 39.5 °F /  4.2 °C 30.15in /  1020.9hPa NE 1.9mph /  3.1km/h 19mph /  30.6km/h 55.1% 0.00in /  0mm 134 W/m2
15:09 55.2 °F /  12.9 °C 39.3 °F /  4.1 °C 30.15in /  1020.9hPa ENE 2.3mph /  3.7km/h 11mph /  17.7km/h 54.8% 0.00in /  0mm 137 W/m2
15:14 55.2 °F /  12.9 °C 39.1 °F /  3.9 °C 30.15in /  1020.9hPa ENE 2.8mph /  4.5km/h 11mph /  17.7km/h 54.6% 0.00in /  0mm 139 W/m2
15:19 55.1 °F /  12.8 °C 39.1 °F /  3.9 °C 30.15in /  1020.9hPa ENE 2.9mph /  4.7km/h 12mph /  19.3km/h 54.7% 0.00in /  0mm 146 W/m2
15:24 55 °F /  12.8 °C 39.5 °F /  4.2 °C 30.15in /  1020.9hPa ENE 3.2mph /  5.1km/h 13mph /  20.9km/h 55.7% 0.00in /  0mm 146 W/m2
15:29 55 °F /  12.8 °C 39 °F /  3.9 °C 30.15in /  1020.9hPa NE 3.7mph /  6km/h 15mph /  24.1km/h 54.8% 0.00in /  0mm 146 W/m2
15:34 54.9 °F /  12.7 °C 39.3 °F /  4.1 °C 30.14in /  1020.5hPa NE 4mph /  6.4km/h 15mph /  24.1km/h 55.6% 0.00in /  0mm 146 W/m2
15:39 54.9 °F /  12.7 °C 39.3 °F /  4.1 °C 30.15in /  1020.9hPa ENE 1.8mph /  2.9km/h 13mph /  20.9km/h 55.6% 0.00in /  0mm 172 W/m2
15:44 55 °F /  12.8 °C 39.6 °F /  4.2 °C 30.15in /  1020.9hPa ENE 2.5mph /  4km/h 13mph /  20.9km/h 56% 0.00in /  0mm 185 W/m2
15:49 55.1 °F /  12.8 °C 39 °F /  3.9 °C 30.15in /  1020.9hPa ENE 3.3mph /  5.3km/h 13mph /  20.9km/h 54.5% 0.00in /  0mm 181 W/m2
15:54 55.1 °F /  12.8 °C 38.8 °F /  3.8 °C 30.15in /  1020.9hPa ENE 3.6mph /  5.8km/h 15mph /  24.1km/h 54% 0.00in /  0mm 165 W/m2
15:59 55.1 °F /  12.8 °C 38.3 °F /  3.5 °C 30.15in /  1020.9hPa ENE 3.1mph /  5km/h 15mph /  24.1km/h 53% 0.00in /  0mm 158 W/m2
16:09 55.1 °F /  12.8 °C 38.3 °F /  3.5 °C 30.16in /  1021.2hPa NE 1.8mph /  2.9km/h 8mph /  12.9km/h 53% 0.00in /  0mm 135 W/m2
16:14 55 °F /  12.8 °C 38.2 °F /  3.4 °C 30.16in /  1021.2hPa NE 3.2mph /  5.1km/h 13mph /  20.9km/h 53% 0.00in /  0mm 121 W/m2
16:19 55 °F /  12.8 °C 38.2 °F /  3.4 °C 30.16in /  1021.2hPa ENE 2.6mph /  4.2km/h 13mph /  20.9km/h 53% 0.00in /  0mm 111 W/m2
16:24 54.9 °F /  12.7 °C 38.6 °F /  3.7 °C 30.16in /  1021.2hPa NE 1.2mph /  1.9km/h 13mph /  20.9km/h 54.1% 0.00in /  0mm 104 W/m2
16:29 54.9 °F /  12.7 °C 38.8 °F /  3.8 °C 30.16in /  1021.2hPa ENE 1.7mph /  2.7km/h 13mph /  20.9km/h 54.5% 0.00in /  0mm 90 W/m2
16:34 54.8 °F /  12.7 °C 38.4 °F /  3.6 °C 30.16in /  1021.2hPa ENE 3.5mph /  5.6km/h 17mph /  27.4km/h 53.9% 0.00in /  0mm 114 W/m2
16:39 54.8 °F /  12.7 °C 37.9 °F /  3.3 °C 30.17in /  1021.6hPa ENE 1.9mph /  3.1km/h 17mph /  27.4km/h 52.8% 0.00in /  0mm 114 W/m2
16:44 54.8 °F /  12.7 °C 37.7 °F /  3.2 °C 30.17in /  1021.6hPa ENE 5.4mph /  8.7km/h 17mph /  27.4km/h 52.4% 0.00in /  0mm 97 W/m2
16:49 54.7 °F /  12.6 °C 37 °F /  2.8 °C 30.17in /  1021.6hPa NE 4.9mph /  7.9km/h 17mph /  27.4km/h 51.2% 0.00in /  0mm 81 W/m2
16:54 54.6 °F /  12.6 °C 36.4 °F /  2.4 °C 30.17in /  1021.6hPa ENE 4.9mph /  7.9km/h 17mph /  27.4km/h 50.2% 0.00in /  0mm 79 W/m2
16:59 54.5 °F /  12.5 °C 36.5 °F /  2.5 °C 30.17in /  1021.6hPa ENE 2.9mph /  4.7km/h 17mph /  27.4km/h 50.5% 0.00in /  0mm 67 W/m2
17:04 54.4 °F /  12.4 °C 36.9 °F /  2.7 °C 30.17in /  1021.6hPa ENE 2.8mph /  4.5km/h 17mph /  27.4km/h 51.7% 0.00in /  0mm 58 W/m2
17:09 54.2 °F /  12.3 °C 36.5 °F /  2.5 °C 30.17in /  1021.6hPa ENE 5.5mph /  8.9km/h 14mph /  22.5km/h 51% 0.00in /  0mm 51 W/m2
17:14 54.1 °F /  12.3 °C 36.2 °F /  2.3 °C 30.17in /  1021.6hPa ENE 4.5mph /  7.2km/h 18mph /  29km/h 50.6% 0.00in /  0mm 53 W/m2
17:19 54 °F /  12.2 °C 36.3 °F /  2.4 °C 30.17in /  1021.6hPa ENE 4mph /  6.4km/h 18mph /  29km/h 51.1% 0.00in /  0mm 54 W/m2
17:24 53.9 °F /  12.2 °C 36.3 °F /  2.4 °C 30.17in /  1021.6hPa ENE 3.6mph /  5.8km/h 18mph /  29km/h 51.2% 0.00in /  0mm 42 W/m2
17:29 53.8 °F /  12.1 °C 36.5 °F /  2.5 °C 30.18in /  1021.9hPa NE 2.2mph /  3.5km/h 18mph /  29km/h 51.9% 0.00in /  0mm 37 W/m2
17:34 53.7 °F /  12.1 °C 37.2 °F /  2.9 °C 30.18in /  1021.9hPa NE 0.5mph /  0.8km/h 18mph /  29km/h 53.5% 0.00in /  0mm 42 W/m2
17:39 53.7 °F /  12.1 °C 37.1 °F /  2.8 °C 30.19in /  1022.2hPa NE 1.6mph /  2.6km/h 10mph /  16.1km/h 53.2% 0.00in /  0mm 42 W/m2
17:44 53.6 °F /  12 °C 36 °F /  2.2 °C 30.19in /  1022.2hPa ENE 2.9mph /  4.7km/h 12mph /  19.3km/h 51.2% 0.00in /  0mm 33 W/m2
17:49 53.5 °F /  11.9 °C 36.1 °F /  2.3 °C 30.19in /  1022.2hPa ENE 1.3mph /  2.1km/h 12mph /  19.3km/h 51.4% 0.00in /  0mm 23 W/m2
17:54 53.5 °F /  11.9 °C 36.4 °F /  2.4 °C 30.18in /  1021.9hPa East 1.1mph /  1.8km/h 12mph /  19.3km/h 52.2% 0.00in /  0mm 23 W/m2
17:59 53.3 °F /  11.8 °C 36.4 °F /  2.4 °C 30.19in /  1022.2hPa ESE 0.6mph /  1km/h 12mph /  19.3km/h 52.5% 0.00in /  0mm 25 W/m2
18:04 53.2 °F /  11.8 °C 36 °F /  2.2 °C 30.19in /  1022.2hPa ENE 2.2mph /  3.5km/h 12mph /  19.3km/h 52% 0.00in /  0mm 19 W/m2
18:09 53.1 °F /  11.7 °C 36.3 °F /  2.4 °C 30.19in /  1022.2hPa ENE 0.5mph /  0.8km/h 7mph /  11.3km/h 52.9% 0.00in /  0mm 12 W/m2
18:14 52.9 °F /  11.6 °C 36.3 °F /  2.4 °C 30.19in /  1022.2hPa NE 1.4mph /  2.3km/h 12mph /  19.3km/h 53% 0.00in /  0mm 9 W/m2
18:19 52.8 °F /  11.6 °C 36.1 °F /  2.3 °C 30.19in /  1022.2hPa NE 2.4mph /  3.9km/h 12mph /  19.3km/h 52.8% 0.00in /  0mm 5 W/m2
18:24 52.7 °F /  11.5 °C 36.1 °F /  2.3 °C 30.19in /  1022.2hPa ENE 1.3mph /  2.1km/h 12mph /  19.3km/h 53.1% 0.00in /  0mm 0 W/m2
18:29 52.6 °F /  11.4 °C 35.9 °F /  2.2 °C 30.20in /  1022.6hPa NE 3.8mph /  6.1km/h 12mph /  19.3km/h 53% 0.00in /  0mm 0 W/m2
18:34 52.4 °F /  11.3 °C 35.8 °F /  2.1 °C 30.20in /  1022.6hPa NE 3.3mph /  5.3km/h 14mph /  22.5km/h 53% 0.00in /  0mm 0 W/m2
18:39 52.4 °F /  11.3 °C 35.9 °F /  2.2 °C 30.20in /  1022.6hPa NE 2.5mph /  4km/h 14mph /  22.5km/h 53.4% 0.00in /  0mm 0 W/m2
18:44 52.3 °F /  11.3 °C 35.9 °F /  2.2 °C 30.19in /  1022.2hPa ENE 1.6mph /  2.6km/h 14mph /  22.5km/h 53.5% 0.00in /  0mm 0 W/m2
18:49 52.2 °F /  11.2 °C 35.8 °F /  2.1 °C 30.19in /  1022.2hPa ENE 1.1mph /  1.8km/h 14mph /  22.5km/h 53.4% 0.00in /  0mm 0 W/m2
18:54 52.1 °F /  11.2 °C 36 °F /  2.2 °C 30.19in /  1022.2hPa ENE 2mph /  3.2km/h 15mph /  24.1km/h 54% 0.00in /  0mm 0 W/m2
18:59 52 °F /  11.1 °C 35.9 °F /  2.2 °C 30.19in /  1022.2hPa ENE 1.8mph /  2.9km/h 15mph /  24.1km/h 54% 0.00in /  0mm 0 W/m2
19:04 51.9 °F /  11.1 °C 35.8 °F /  2.1 °C 30.19in /  1022.2hPa East 1.9mph /  3.1km/h 15mph /  24.1km/h 54% 0.00in /  0mm 0 W/m2
19:09 51.8 °F /  11 °C 35.8 °F /  2.1 °C 30.19in /  1022.2hPa ENE 1mph /  1.6km/h 14mph /  22.5km/h 54.2% 0.00in /  0mm 0 W/m2
19:14 51.8 °F /  11 °C 35.7 °F /  2.1 °C 30.19in /  1022.2hPa ENE 1.2mph /  1.9km/h 14mph /  22.5km/h 54% 0.00in /  0mm 0 W/m2
19:19 51.7 °F /  10.9 °C 35.6 °F /  2 °C 30.19in /  1022.2hPa ENE 2.2mph /  3.5km/h 14mph /  22.5km/h 54% 0.00in /  0mm 0 W/m2
19:24 51.7 °F /  10.9 °C 35.8 °F /  2.1 °C 30.20in /  1022.6hPa ENE 1.4mph /  2.3km/h 14mph /  22.5km/h 54.5% 0.00in /  0mm 0 W/m2
19:29 51.6 °F /  10.9 °C 35.8 °F /  2.1 °C 30.20in /  1022.6hPa ENE 1.8mph /  2.9km/h 14mph /  22.5km/h 54.7% 0.00in /  0mm 0 W/m2
19:34 51.5 °F /  10.8 °C 35.5 °F /  1.9 °C 30.20in /  1022.6hPa ENE 3.4mph /  5.5km/h 14mph /  22.5km/h 54.2% 0.00in /  0mm 0 W/m2
19:39 51.5 °F /  10.8 °C 35.4 °F /  1.9 °C 30.20in /  1022.6hPa ENE 3.5mph /  5.6km/h 13mph /  20.9km/h 54% 0.00in /  0mm 0 W/m2
19:44 51.5 °F /  10.8 °C 35.7 °F /  2.1 °C 30.20in /  1022.6hPa ENE 2.6mph /  4.2km/h 13mph /  20.9km/h 54.5% 0.00in /  0mm 0 W/m2
19:49 51.5 °F /  10.8 °C 35.4 °F /  1.9 °C 30.21in /  1022.9hPa ENE 2.9mph /  4.7km/h 13mph /  20.9km/h 54% 0.00in /  0mm 0 W/m2
19:54 51.5 °F /  10.8 °C 35.6 °F /  2 °C 30.21in /  1022.9hPa ENE 3.3mph /  5.3km/h 13mph /  20.9km/h 54.3% 0.00in /  0mm 0 W/m2
19:59 51.4 °F /  10.8 °C 35.6 °F /  2 °C 30.21in /  1022.9hPa ENE 3.4mph /  5.5km/h 13mph /  20.9km/h 54.7% 0.00in /  0mm 0 W/m2
20:00 51.4 °F /  10.8 °C 35.8 °F /  2.1 °C 30.20in /  1022.6hPa NE 4mph /  6.4km/h 13mph /  20.9km/h 55% 0.00in /  0mm 0 W/m2
20:09 51.3 °F /  10.7 °C 35.8 °F /  2.1 °C 30.20in /  1022.6hPa ENE 1.8mph /  2.9km/h 10mph /  16.1km/h 55.2% 0.00in /  0mm 0 W/m2
20:14 51.3 °F /  10.7 °C 35.7 °F /  2.1 °C 30.20in /  1022.6hPa NE 1.5mph /  2.4km/h 10mph /  16.1km/h 55.1% 0.00in /  0mm 0 W/m2
20:19 51.2 °F /  10.7 °C 35.8 °F /  2.1 °C 30.21in /  1022.9hPa NE 3.1mph /  5km/h 12mph /  19.3km/h 55.3% 0.00in /  0mm 0 W/m2
20:24 51.1 °F /  10.6 °C 35.8 °F /  2.1 °C 30.21in /  1022.9hPa ENE 1.1mph /  1.8km/h 12mph /  19.3km/h 55.5% 0.00in /  0mm 0 W/m2
20:29 51.1 °F /  10.6 °C 35.9 °F /  2.2 °C 30.21in /  1022.9hPa NE 1mph /  1.6km/h 12mph /  19.3km/h 56% 0.00in /  0mm 0 W/m2
20:34 51 °F /  10.6 °C 35.9 °F /  2.2 °C 30.22in /  1023.2hPa ENE 1.4mph /  2.3km/h 12mph /  19.3km/h 56% 0.00in /  0mm 0 W/m2
20:39 51 °F /  10.6 °C 36.2 °F /  2.3 °C 30.22in /  1023.2hPa NE 1.5mph /  2.4km/h 9mph /  14.5km/h 56.8% 0.00in /  0mm 0 W/m2
20:44 50.9 °F /  10.5 °C 36.3 °F /  2.4 °C 30.22in /  1023.2hPa ENE 1mph /  1.6km/h 9mph /  14.5km/h 57.3% 0.00in /  0mm 0 W/m2
20:49 50.8 °F /  10.4 °C 36.2 °F /  2.3 °C 30.23in /  1023.6hPa ENE 0.8mph /  1.3km/h 11mph /  17.7km/h 57.1% 0.00in /  0mm 0 W/m2
20:54 50.8 °F /  10.4 °C 36.5 °F /  2.5 °C 30.23in /  1023.6hPa ENE 1mph /  1.6km/h 11mph /  17.7km/h 57.7% 0.00in /  0mm 0 W/m2
20:59 50.7 °F /  10.4 °C 36.4 °F /  2.4 °C 30.22in /  1023.2hPa NE 1.3mph /  2.1km/h 11mph /  17.7km/h 57.7% 0.00in /  0mm 0 W/m2
21:04 50.7 °F /  10.4 °C 36.5 °F /  2.5 °C 30.22in /  1023.2hPa ENE 1.2mph /  1.9km/h 11mph /  17.7km/h 58% 0.00in /  0mm 0 W/m2
21:09 50.6 °F /  10.3 °C 36.4 °F /  2.4 °C 30.22in /  1023.2hPa ENE 0.9mph /  1.4km/h 6mph /  9.7km/h 58% 0.00in /  0mm 0 W/m2
21:14 50.6 °F /  10.3 °C 36.4 °F /  2.4 °C 30.21in /  1022.9hPa ENE 1.7mph /  2.7km/h 10mph /  16.1km/h 58.1% 0.00in /  0mm 0 W/m2
21:19 50.5 °F /  10.3 °C 36.3 °F /  2.4 °C 30.22in /  1023.2hPa ENE 1.1mph /  1.8km/h 10mph /  16.1km/h 58.1% 0.00in /  0mm 0 W/m2
21:24 50.5 °F /  10.3 °C 37 °F /  2.8 °C 30.22in /  1023.2hPa ENE 0.4mph /  0.6km/h 10mph /  16.1km/h 59.6% 0.00in /  0mm 0 W/m2
21:29 50.5 °F /  10.3 °C 36.8 °F /  2.7 °C 30.22in /  1023.2hPa ENE 3.4mph /  5.5km/h 11mph /  17.7km/h 59.2% 0.00in /  0mm 0 W/m2
21:34 50.5 °F /  10.3 °C 36.7 °F /  2.6 °C 30.22in /  1023.2hPa NE 1.7mph /  2.7km/h 11mph /  17.7km/h 59% 0.00in /  0mm 0 W/m2
21:39 50.4 °F /  10.2 °C 36.8 °F /  2.7 °C 30.22in /  1023.2hPa NNE 0.9mph /  1.4km/h 10mph /  16.1km/h 59.3% 0.00in /  0mm 0 W/m2
21:44 50.4 °F /  10.2 °C 37.1 °F /  2.8 °C 30.22in /  1023.2hPa Calm   10mph /  16.1km/h 60% 0.00in /  0mm 0 W/m2
21:49 50.3 °F /  10.2 °C 37 °F /  2.8 °C 30.22in /  1023.2hPa Calm   10mph /  16.1km/h 60.1% 0.00in /  0mm 0 W/m2
21:54 50.3 °F /  10.2 °C 37.1 °F /  2.8 °C 30.22in /  1023.2hPa ENE 0.2mph /  0.3km/h 10mph /  16.1km/h 60.2% 0.00in /  0mm 0 W/m2
21:59 50.2 °F /  10.1 °C 37.2 °F /  2.9 °C 30.22in /  1023.2hPa ENE 0.5mph /  0.8km/h 10mph /  16.1km/h 60.7% 0.00in /  0mm 0 W/m2
22:04 50.2 °F /  10.1 °C 37.4 °F /  3 °C 30.22in /  1023.2hPa Calm   10mph /  16.1km/h 61.4% 0.00in /  0mm 0 W/m2
22:09 50.2 °F /  10.1 °C 37.5 °F /  3.1 °C 30.22in /  1023.2hPa NNW 0.3mph /  0.5km/h 5mph /  8km/h 61.7% 0.00in /  0mm 0 W/m2
22:14 50.1 °F /  10.1 °C 37.5 °F /  3.1 °C 30.22in /  1023.2hPa NW 0.1mph /  0.2km/h 5mph /  8km/h 61.8% 0.00in /  0mm 0 W/m2
22:19 50.1 °F /  10.1 °C 37.6 °F /  3.1 °C 30.22in /  1023.2hPa NNW 0.5mph /  0.8km/h 8mph /  12.9km/h 62.1% 0.00in /  0mm 0 W/m2
22:24 50 °F /  10 °C 37.5 °F /  3.1 °C 30.22in /  1023.2hPa North 0.5mph /  0.8km/h 8mph /  12.9km/h 62% 0.00in /  0mm 0 W/m2
22:29 50 °F /  10 °C 37.5 °F /  3.1 °C 30.22in /  1023.2hPa NW 0.5mph /  0.8km/h 8mph /  12.9km/h 62% 0.00in /  0mm 0 W/m2
22:34 49.9 °F /  9.9 °C 37.5 °F /  3.1 °C 30.23in /  1023.6hPa North 0.4mph /  0.6km/h 12mph /  19.3km/h 62.2% 0.00in /  0mm 0 W/m2
22:39 49.9 °F /  9.9 °C 37.7 °F /  3.2 °C 30.23in /  1023.6hPa North 0.5mph /  0.8km/h 12mph /  19.3km/h 62.7% 0.00in /  0mm 0 W/m2
22:44 49.9 °F /  9.9 °C 37.8 °F /  3.2 °C 30.22in /  1023.2hPa NE 0.4mph /  0.6km/h 12mph /  19.3km/h 62.8% 0.00in /  0mm 0 W/m2
22:49 49.9 °F /  9.9 °C 37.4 °F /  3 °C 30.22in /  1023.2hPa NE 1.1mph /  1.8km/h 12mph /  19.3km/h 62% 0.00in /  0mm 0 W/m2
22:54 49.9 °F /  9.9 °C 37.4 °F /  3 °C 30.21in /  1022.9hPa NE 0.4mph /  0.6km/h 12mph /  19.3km/h 62% 0.00in /  0mm 0 W/m2
22:59 49.9 °F /  9.9 °C 37.4 °F /  3 °C 30.21in /  1022.9hPa ENE 0.5mph /  0.8km/h 12mph /  19.3km/h 61.8% 0.00in /  0mm 0 W/m2
23:04 50 °F /  10 °C 37.5 °F /  3.1 °C 30.21in /  1022.9hPa NE 0.3mph /  0.5km/h 12mph /  19.3km/h 62% 0.00in /  0mm 0 W/m2
23:09 50 °F /  10 °C 37.5 °F /  3.1 °C 30.22in /  1023.2hPa North 0.2mph /  0.3km/h 4mph /  6.4km/h 62% 0.00in /  0mm 0 W/m2
23:14 50 °F /  10 °C 37.5 °F /  3.1 °C 30.22in /  1023.2hPa NE 0.3mph /  0.5km/h 4mph /  6.4km/h 62% 0.00in /  0mm 0 W/m2
23:19 50.1 °F /  10.1 °C 37.6 °F /  3.1 °C 30.22in /  1023.2hPa NE 0.9mph /  1.4km/h 10mph /  16.1km/h 62% 0.00in /  0mm 0 W/m2
23:24 50.1 °F /  10.1 °C 37.6 °F /  3.1 °C 30.22in /  1023.2hPa NNE 0.1mph /  0.2km/h 10mph /  16.1km/h 62% 0.00in /  0mm 0 W/m2
23:28 50.1 °F /  10.1 °C 37.7 °F /  3.2 °C 30.22in /  1023.2hPa ENE 0.8mph /  1.3km/h 10mph /  16.1km/h 62.3% 0.00in /  0mm 0 W/m2
Hartford County Weather
Compliments of Weather Underground - 2 mb